Woolstock, Iowa
Current Conditions -  °F | °C
As of 12:15 AM on Saturday 20 Dec 2014 (Local Time) from KEBS Reporting Station
Haze Haze  
Wind Chill: -6°   Ceiling: 300
Heat Index: -1°   Visibility: 1.2mi
Dew Point: -1°   Wind: 10mph
Humidity: 100%   Direction: 160°SSE
Pressure: 30.15"   Gusts: NA
Location:  42.57°N, 93.84°W
Report Text: KEBS 200615Z AUTO 16009KT 1 1/4SM BR OVC003 M01/M01 A3015 RMK AO2
Loading
Personal Weather Stations






























Interactive Weather Map New forecast layout! Learn more

10-Day Weather Forecast

Advertisements
Track Severe Weather on mobile